createdAt,value
2023-02-12T00:01:32.221Z,12.27
2023-02-12T00:04:01.526Z,14.40
2023-02-12T00:06:31.075Z,11.27
2023-02-12T00:09:00.601Z,10.43
2023-02-12T00:11:33.873Z,13.33
2023-02-12T00:14:05.560Z,12.70
2023-02-12T00:16:34.788Z,11.53
2023-02-12T00:19:04.207Z,9.43
2023-02-12T00:21:34.064Z,11.13
2023-02-12T00:24:03.761Z,9.50
2023-02-12T00:26:34.660Z,9.10
2023-02-12T00:29:04.135Z,8.27
2023-02-12T00:31:33.867Z,17.17
2023-02-12T00:34:02.949Z,11.87
2023-02-12T00:36:33.555Z,9.53
2023-02-12T00:39:03.066Z,11.17
2023-02-12T00:41:33.773Z,13.80
2023-02-12T00:44:02.846Z,10.87
2023-02-12T00:46:31.949Z,9.93
2023-02-12T00:49:01.020Z,13.03
2023-02-12T00:51:30.127Z,13.53
2023-02-12T00:53:59.297Z,11.77
2023-02-12T00:56:28.557Z,15.27
2023-02-12T00:58:58.981Z,14.87
2023-02-12T01:01:28.103Z,13.20
2023-02-12T01:03:58.595Z,10.83
2023-02-12T01:06:29.106Z,12.67
2023-02-12T01:08:58.178Z,9.07
2023-02-12T01:11:27.217Z,13.90
2023-02-12T01:13:56.309Z,8.83
2023-02-12T01:16:27.306Z,9.30
2023-02-12T01:18:57.182Z,6.60
2023-02-12T01:21:29.041Z,5.97
2023-02-12T01:23:58.272Z,6.17
2023-02-12T01:26:28.448Z,6.90
2023-02-12T01:28:59.276Z,4.83
2023-02-12T01:31:32.764Z,7.07
2023-02-12T01:34:02.592Z,6.53
2023-02-12T01:36:33.295Z,9.40
2023-02-12T01:39:03.596Z,5.90
2023-02-12T01:41:34.505Z,9.60
2023-02-12T01:44:16.895Z,5.60
2023-02-12T01:46:51.204Z,5.93
2023-02-12T01:49:25.505Z,7.73
2023-02-12T01:51:59.026Z,8.13
2023-02-12T01:54:29.685Z,7.57
2023-02-12T01:57:00.160Z,8.67
2023-02-12T01:59:30.389Z,8.80
2023-02-12T02:02:01.091Z,9.37
2023-02-12T02:04:37.774Z,8.67
2023-02-12T02:07:09.378Z,9.30
2023-02-12T02:09:40.645Z,10.53
2023-02-12T02:12:27.475Z,11.07
2023-02-12T02:15:02.191Z,7.97
2023-02-12T02:17:56.456Z,10.13
2023-02-12T02:20:49.721Z,11.17
2023-02-12T02:23:48.696Z,12.97
2023-02-12T02:26:56.559Z,14.67
2023-02-12T02:29:50.241Z,11.23
2023-02-12T02:32:24.989Z,12.13
2023-02-12T02:35:00.986Z,10.10
2023-02-12T02:37:37.249Z,10.57
2023-02-12T02:40:12.518Z,14.47
2023-02-12T02:42:48.173Z,15.57
2023-02-12T02:45:22.213Z,15.53
2023-02-12T02:48:01.285Z,17.87
2023-02-12T02:50:32.938Z,15.17
2023-02-12T02:53:05.658Z,14.83
2023-02-12T02:55:40.264Z,18.47
2023-02-12T02:58:15.671Z,15.07
2023-02-12T03:00:48.800Z,18.60
2023-02-12T03:03:24.898Z,18.70
2023-02-12T03:05:59.011Z,22.83
2023-02-12T03:08:34.231Z,14.73
2023-02-12T03:11:10.234Z,14.67
2023-02-12T03:13:44.779Z,12.40
2023-02-12T03:16:19.303Z,12.83
2023-02-12T03:18:54.375Z,15.23
2023-02-12T03:21:31.191Z,16.97
2023-02-12T03:24:06.038Z,13.93
2023-02-12T03:26:43.668Z,11.77
2023-02-12T03:29:13.470Z,13.63
2023-02-12T03:32:04.183Z,14.53
2023-02-12T03:34:47.276Z,15.23
2023-02-12T03:37:22.930Z,11.77
2023-02-12T03:39:57.728Z,11.63
2023-02-12T03:42:36.696Z,12.37
2023-02-12T03:45:16.011Z,10.53
2023-02-12T03:47:50.341Z,9.17
2023-02-12T03:50:28.953Z,8.40
2023-02-12T03:52:57.981Z,6.53
2023-02-12T03:55:27.510Z,10.00
2023-02-12T03:58:01.889Z,7.57
2023-02-12T04:00:31.401Z,7.13
2023-02-12T04:03:00.896Z,7.13
2023-02-12T04:05:31.337Z,6.30
2023-02-12T04:08:01.636Z,11.40
2023-02-12T04:10:36.747Z,10.27
2023-02-12T04:13:12.493Z,10.10
2023-02-12T04:15:55.000Z,7.33
2023-02-12T04:18:30.840Z,11.03
2023-02-12T04:21:08.232Z,6.50
2023-02-12T04:23:48.944Z,19.27
2023-02-12T04:26:27.969Z,10.97
2023-02-12T04:29:09.703Z,9.37
2023-02-12T04:31:47.739Z,10.83
2023-02-12T04:34:26.176Z,12.87
2023-02-12T04:37:00.303Z,17.50
2023-02-12T04:39:31.605Z,17.57
2023-02-12T04:42:01.790Z,12.47
2023-02-12T04:44:33.835Z,21.57
2023-02-12T04:47:03.315Z,20.87
2023-02-12T04:49:32.511Z,9.77
2023-02-12T04:52:02.932Z,10.90
2023-02-12T04:54:32.057Z,12.03
2023-02-12T04:57:01.152Z,9.30
2023-02-12T04:59:30.241Z,8.93
2023-02-12T05:01:59.312Z,8.97
2023-02-12T05:04:28.560Z,22.13
2023-02-12T05:06:57.621Z,30.83
2023-02-12T05:09:28.024Z,15.20
2023-02-12T05:11:57.094Z,47.60
2023-02-12T05:14:26.430Z,21.97
2023-02-12T05:16:55.474Z,40.97
2023-02-12T05:19:24.565Z,18.33
2023-02-12T05:21:53.673Z,32.37
2023-02-12T05:24:22.717Z,21.03
2023-02-12T05:26:53.496Z,59.10
2023-02-12T05:29:22.598Z,31.77
2023-02-12T05:31:51.773Z,22.23
2023-02-12T05:34:21.196Z,27.20
2023-02-12T05:36:50.259Z,36.17
2023-02-12T05:39:19.329Z,16.20
2023-02-12T05:41:48.458Z,24.13
2023-02-12T05:44:18.903Z,20.60
2023-02-12T05:46:48.078Z,15.87
2023-02-12T05:49:17.197Z,12.00
2023-02-12T05:51:46.296Z,25.83
2023-02-12T05:54:15.469Z,16.10
2023-02-12T05:56:46.575Z,29.50
2023-02-12T05:59:19.255Z,21.10
2023-02-12T06:01:50.310Z,22.73
2023-02-12T06:04:23.412Z,14.07
2023-02-12T06:06:52.732Z,8.40
2023-02-12T06:09:21.811Z,10.80
2023-02-12T06:11:51.059Z,12.10
2023-02-12T06:14:22.536Z,9.73
2023-02-12T06:16:53.028Z,7.93
2023-02-12T06:19:22.428Z,12.57
2023-02-12T06:21:51.576Z,13.27
2023-02-12T06:24:20.975Z,11.00
2023-02-12T06:26:52.153Z,20.03
2023-02-12T06:29:23.678Z,31.60
2023-02-12T06:31:52.916Z,19.13
2023-02-12T06:34:22.224Z,13.20
2023-02-12T06:36:51.309Z,15.93
2023-02-12T06:39:20.421Z,26.00
2023-02-12T06:41:49.489Z,15.13
2023-02-12T06:44:18.599Z,14.63
2023-02-12T06:46:49.120Z,16.07
2023-02-12T06:49:18.376Z,26.37
2023-02-12T06:51:47.508Z,20.53
2023-02-12T06:54:18.730Z,15.63
2023-02-12T06:56:47.838Z,18.00
2023-02-12T06:59:18.590Z,28.33
2023-02-12T07:01:49.090Z,16.83
2023-02-12T07:04:18.248Z,16.43
2023-02-12T07:06:47.329Z,20.63
2023-02-12T07:09:16.397Z,19.67
2023-02-12T07:11:45.573Z,17.17
2023-02-12T07:14:17.055Z,16.60
2023-02-12T07:16:46.266Z,17.87
2023-02-12T07:19:17.868Z,16.50
2023-02-12T07:21:46.947Z,16.47
2023-02-12T07:24:18.135Z,15.40
2023-02-12T07:26:47.453Z,22.03
2023-02-12T07:29:17.108Z,16.83
2023-02-12T07:31:47.403Z,21.27
2023-02-12T07:34:18.224Z,23.60
2023-02-12T07:36:47.274Z,21.83
2023-02-12T07:39:16.548Z,19.73
2023-02-12T07:41:45.608Z,36.10
2023-02-12T07:44:14.871Z,20.73
2023-02-12T07:46:48.506Z,33.67
2023-02-12T07:49:21.610Z,20.80
2023-02-12T07:51:51.205Z,18.93
2023-02-12T07:54:20.279Z,15.47
2023-02-12T07:56:49.436Z,24.27
2023-02-12T07:59:20.407Z,31.63
2023-02-12T08:01:51.047Z,38.33
2023-02-12T08:04:24.229Z,26.13
2023-02-12T08:06:55.798Z,26.03
2023-02-12T08:09:27.798Z,26.93
2023-02-12T08:11:56.887Z,23.87
2023-02-12T08:14:27.257Z,28.03
2023-02-12T08:16:56.484Z,18.40
2023-02-12T08:19:27.150Z,21.97
2023-02-12T08:21:57.259Z,23.87
2023-02-12T08:24:27.130Z,18.90
2023-02-12T08:26:56.814Z,19.93
2023-02-12T08:29:28.699Z,27.03
2023-02-12T08:32:00.078Z,21.07
2023-02-12T08:34:32.466Z,24.77
2023-02-12T08:37:02.186Z,23.43
2023-02-12T08:39:31.848Z,20.53
2023-02-12T08:42:01.584Z,25.43
2023-02-12T08:44:31.017Z,16.90
2023-02-12T08:47:00.113Z,22.40
2023-02-12T08:49:31.493Z,23.70
2023-02-12T08:52:02.553Z,21.23
2023-02-12T08:54:32.897Z,19.50
2023-02-12T08:57:03.620Z,23.23
2023-02-12T08:59:32.802Z,24.13
2023-02-12T09:02:03.997Z,19.93
2023-02-12T09:04:35.896Z,23.33
2023-02-12T09:07:05.010Z,23.70
2023-02-12T09:09:34.101Z,19.20
2023-02-12T09:12:03.192Z,22.87
2023-02-12T09:14:32.282Z,22.47
2023-02-12T09:17:01.407Z,24.93
2023-02-12T09:19:30.513Z,20.73
2023-02-12T09:22:00.927Z,20.73
2023-02-12T09:24:30.014Z,20.10
2023-02-12T09:26:59.047Z,16.87
2023-02-12T09:29:28.138Z,16.70
2023-02-12T09:31:57.745Z,18.20
2023-02-12T09:34:26.887Z,19.73
2023-02-12T09:36:55.955Z,17.73
2023-02-12T09:39:28.806Z,19.57
2023-02-12T09:42:21.275Z,20.37
2023-02-12T09:45:02.890Z,16.47
2023-02-12T09:47:37.590Z,23.13
2023-02-12T09:50:20.489Z,20.33
2023-02-12T09:52:50.673Z,21.87
2023-02-12T09:55:23.742Z,22.50
2023-02-12T09:57:54.893Z,25.03
2023-02-12T10:00:27.978Z,17.87
2023-02-12T10:02:57.187Z,21.87
2023-02-12T10:05:29.949Z,24.97
2023-02-12T10:08:13.136Z,20.23
2023-02-12T10:10:52.754Z,22.57
2023-02-12T10:13:36.515Z,26.53
2023-02-12T10:16:15.537Z,21.57
2023-02-12T10:19:02.547Z,14.67
2023-02-12T10:21:54.312Z,14.53
2023-02-12T10:24:44.857Z,17.30
2023-02-12T10:27:18.480Z,17.17
2023-02-12T10:29:50.323Z,19.13
2023-02-12T10:32:26.763Z,19.30
2023-02-12T10:34:57.609Z,17.10
2023-02-12T10:37:37.032Z,17.13
2023-02-12T10:40:19.689Z,18.67
2023-02-12T10:42:53.701Z,17.60
2023-02-12T10:45:26.232Z,14.60
2023-02-12T10:48:04.536Z,17.07
2023-02-12T10:50:45.910Z,13.50
2023-02-12T10:53:21.410Z,20.40
2023-02-12T10:55:50.869Z,17.43
2023-02-12T10:58:25.016Z,25.00
2023-02-12T11:00:59.577Z,17.13
2023-02-12T11:03:36.022Z,17.53
2023-02-12T11:06:16.606Z,21.70
2023-02-12T11:08:46.154Z,18.83
2023-02-12T11:11:20.426Z,18.47
2023-02-12T11:13:58.637Z,16.47
2023-02-12T11:16:33.209Z,16.70
2023-02-12T11:19:05.770Z,16.73
2023-02-12T11:21:36.341Z,17.20
2023-02-12T11:24:31.683Z,15.80
2023-02-12T11:27:22.543Z,16.70
2023-02-12T11:30:17.752Z,16.93
2023-02-12T11:32:49.264Z,15.10
2023-02-12T11:35:25.682Z,15.40
2023-02-12T11:37:57.947Z,20.97
2023-02-12T11:40:29.606Z,17.50
2023-02-12T11:43:01.584Z,15.93
2023-02-12T11:45:35.616Z,15.57
2023-02-12T11:48:16.367Z,16.00
2023-02-12T11:50:49.218Z,20.30
2023-02-12T11:53:25.950Z,17.47
2023-02-12T11:55:58.395Z,15.67
2023-02-12T11:58:28.949Z,13.10
2023-02-12T12:01:09.627Z,10.00
2023-02-12T12:03:46.821Z,12.33
2023-02-12T12:06:33.960Z,10.93
2023-02-12T12:09:08.367Z,10.83
2023-02-12T12:11:47.697Z,12.70
2023-02-12T12:14:25.338Z,13.67
2023-02-12T12:17:19.116Z,19.10
2023-02-12T12:19:57.751Z,12.03
2023-02-12T12:22:51.646Z,8.30
2023-02-12T12:25:27.189Z,8.63
2023-02-12T12:28:08.199Z,10.90
2023-02-12T12:30:55.161Z,8.17
2023-02-12T12:33:33.751Z,7.73
2023-02-12T12:36:31.960Z,7.93
2023-02-12T12:39:09.316Z,7.87
2023-02-12T12:41:49.924Z,5.77
2023-02-12T12:44:36.740Z,3.97
2023-02-12T12:47:19.462Z,5.43
2023-02-12T12:50:20.458Z,3.20
2023-02-12T12:53:14.354Z,4.57
2023-02-12T12:56:03.266Z,3.53
2023-02-12T12:58:48.909Z,3.23
2023-02-12T13:01:43.441Z,4.20
2023-02-12T13:05:03.271Z,3.37
2023-02-12T13:07:49.979Z,3.67
2023-02-12T13:10:29.736Z,4.53
2023-02-12T13:13:16.340Z,3.83
2023-02-12T13:15:52.105Z,3.13
2023-02-12T13:18:31.065Z,4.10
2023-02-12T13:21:11.453Z,3.10
2023-02-12T13:23:49.004Z,3.23
2023-02-12T13:26:30.407Z,3.90
2023-02-12T13:29:06.284Z,3.40
2023-02-12T13:31:46.491Z,4.50
2023-02-12T13:34:18.776Z,3.97
2023-02-12T13:36:50.094Z,8.10
2023-02-12T13:39:31.009Z,3.40
2023-02-12T13:42:14.651Z,5.63
2023-02-12T13:44:51.969Z,5.40
2023-02-12T13:47:33.397Z,4.50
2023-02-12T13:50:09.184Z,6.70
2023-02-12T13:52:45.148Z,7.43
2023-02-12T13:55:25.956Z,5.80
2023-02-12T13:58:32.679Z,7.47
2023-02-12T14:01:05.321Z,6.97
2023-02-12T14:03:36.020Z,7.47
2023-02-12T14:06:18.101Z,4.93
2023-02-12T14:08:52.504Z,7.17
2023-02-12T14:11:27.342Z,6.63
2023-02-12T14:13:59.721Z,7.40
2023-02-12T14:16:42.612Z,7.13
2023-02-12T14:19:41.247Z,11.33
2023-02-12T14:22:34.763Z,5.13
2023-02-12T14:25:26.525Z,8.50
2023-02-12T14:27:59.637Z,9.33
2023-02-12T14:30:35.476Z,8.63
2023-02-12T14:33:23.582Z,7.70
2023-02-12T14:36:15.120Z,7.57
2023-02-12T14:39:07.377Z,6.00
2023-02-12T14:41:38.984Z,6.43
2023-02-12T14:44:41.932Z,5.13
2023-02-12T14:47:38.864Z,5.27
2023-02-12T14:50:17.910Z,7.70
2023-02-12T14:53:01.338Z,6.27
2023-02-12T14:55:34.336Z,6.80
2023-02-12T14:58:07.206Z,7.37
2023-02-12T15:00:40.269Z,7.63
2023-02-12T15:03:22.582Z,11.03
2023-02-12T15:06:03.992Z,5.20
2023-02-12T15:08:40.983Z,4.37
2023-02-12T15:11:26.154Z,4.30
2023-02-12T15:14:01.055Z,8.23
2023-02-12T15:16:45.963Z,3.73
2023-02-12T15:19:27.813Z,3.87
2023-02-12T15:21:57.161Z,4.43
2023-02-12T15:24:27.367Z,3.93
2023-02-12T15:27:00.905Z,2.57
2023-02-12T15:29:34.325Z,2.40
2023-02-12T15:32:07.670Z,3.57
2023-02-12T15:34:41.734Z,4.90
2023-02-12T15:37:19.031Z,3.13
2023-02-12T15:39:48.855Z,3.50
2023-02-12T15:42:30.858Z,3.70
2023-02-12T15:45:22.058Z,6.07
2023-02-12T15:48:12.931Z,3.67
2023-02-12T15:50:54.072Z,3.33
2023-02-12T15:53:25.263Z,5.50
2023-02-12T15:55:55.121Z,4.93
2023-02-12T15:58:27.120Z,7.47
2023-02-12T16:01:01.459Z,5.37
2023-02-12T16:03:33.017Z,4.80
2023-02-12T16:06:11.103Z,6.77
2023-02-12T16:08:41.824Z,6.10
2023-02-12T16:11:15.494Z,7.00
2023-02-12T16:13:47.850Z,5.87
2023-02-12T16:16:24.189Z,8.23
2023-02-12T16:19:16.765Z,10.37
2023-02-12T16:21:50.220Z,7.27
2023-02-12T16:24:28.499Z,10.60
2023-02-12T16:26:59.389Z,9.67
2023-02-12T16:29:31.339Z,8.47
2023-02-12T16:32:02.219Z,11.47
2023-02-12T16:34:36.321Z,10.53
2023-02-12T16:37:46.116Z,9.43
2023-02-12T16:40:27.197Z,10.93
2023-02-12T16:43:24.390Z,10.30
2023-02-12T16:46:04.079Z,9.70
2023-02-12T16:48:40.783Z,11.17
2023-02-12T16:51:23.304Z,11.17
2023-02-12T16:53:57.379Z,12.03
2023-02-12T16:56:28.777Z,13.83
2023-02-12T16:59:00.545Z,12.20
2023-02-12T17:01:31.840Z,13.57
2023-02-12T17:04:03.059Z,20.47
2023-02-12T17:06:33.893Z,15.57
2023-02-12T17:09:04.416Z,16.00
2023-02-12T17:11:33.485Z,14.20
2023-02-12T17:14:02.604Z,19.27
2023-02-12T17:16:32.533Z,17.10
2023-02-12T17:19:02.435Z,15.07
2023-02-12T17:21:38.015Z,13.97
2023-02-12T17:24:14.994Z,13.63
2023-02-12T17:26:44.284Z,15.27
2023-02-12T17:29:13.600Z,14.57
2023-02-12T17:31:42.754Z,13.97
2023-02-12T17:34:12.130Z,22.43
2023-02-12T17:36:41.422Z,15.90
2023-02-12T17:39:14.936Z,22.00
2023-02-12T17:41:45.212Z,13.03
2023-02-12T17:44:15.546Z,16.43
2023-02-12T17:46:45.295Z,21.03
2023-02-12T17:49:14.640Z,13.50
2023-02-12T17:51:43.791Z,17.67
2023-02-12T17:54:17.595Z,14.33
2023-02-12T17:56:46.808Z,16.83
2023-02-12T17:59:15.900Z,18.30
2023-02-12T18:01:48.368Z,35.47
2023-02-12T18:04:19.127Z,18.47
2023-02-12T18:06:48.332Z,14.73
2023-02-12T18:09:19.027Z,15.07
2023-02-12T18:11:48.122Z,19.33
2023-02-12T18:14:17.226Z,15.93
2023-02-12T18:16:46.685Z,20.40
2023-02-12T18:19:16.356Z,18.20
2023-02-12T18:21:45.428Z,22.47
2023-02-12T18:24:15.267Z,20.67
2023-02-12T18:26:46.160Z,20.20
2023-02-12T18:29:15.477Z,17.37
2023-02-12T18:31:45.032Z,16.70
2023-02-12T18:34:14.587Z,20.80
2023-02-12T18:36:43.889Z,29.87
2023-02-12T18:39:12.982Z,19.53
2023-02-12T18:41:42.282Z,26.40
2023-02-12T18:44:13.182Z,20.53
2023-02-12T18:46:42.611Z,15.70
2023-02-12T18:49:14.254Z,14.67
2023-02-12T18:51:43.626Z,15.10
2023-02-12T18:54:14.653Z,16.70
2023-02-12T18:56:46.790Z,21.93
2023-02-12T18:59:20.390Z,28.37
2023-02-12T19:01:50.555Z,24.73
2023-02-12T19:04:23.116Z,28.17
2023-02-12T19:06:56.400Z,24.10
2023-02-12T19:09:27.301Z,18.80
2023-02-12T19:11:59.032Z,30.90
2023-02-12T19:14:29.879Z,23.97
2023-02-12T19:16:59.065Z,34.30
2023-02-12T19:19:29.526Z,18.83
2023-02-12T19:21:59.121Z,18.40
2023-02-12T19:24:37.757Z,24.07
2023-02-12T19:27:17.826Z,14.43
2023-02-12T19:29:48.616Z,14.10
2023-02-12T19:32:17.756Z,14.37
2023-02-12T19:34:47.750Z,15.70
2023-02-12T19:37:17.580Z,17.23
2023-02-12T19:39:47.487Z,11.33
2023-02-12T19:42:18.942Z,12.70
2023-02-12T19:44:50.072Z,14.33
2023-02-12T19:47:19.420Z,14.90
2023-02-12T19:49:49.197Z,15.50
2023-02-12T19:52:18.789Z,13.90
2023-02-12T19:54:48.466Z,14.60
2023-02-12T19:57:17.692Z,15.53
2023-02-12T19:59:48.329Z,13.17
2023-02-12T20:02:20.812Z,12.80
2023-02-12T20:04:50.309Z,16.13
2023-02-12T20:07:19.496Z,12.47
2023-02-12T20:09:52.185Z,15.83
2023-02-12T20:12:21.580Z,13.47
2023-02-12T20:14:52.137Z,15.07
2023-02-12T20:17:22.263Z,15.10
2023-02-12T20:19:51.751Z,12.27
2023-02-12T20:22:24.740Z,17.57
2023-02-12T20:24:54.287Z,11.47
2023-02-12T20:27:23.930Z,13.23
2023-02-12T20:29:54.720Z,16.07
2023-02-12T20:32:24.099Z,13.23
2023-02-12T20:34:53.857Z,17.10
2023-02-12T20:37:23.199Z,15.73
2023-02-12T20:39:52.812Z,17.20
2023-02-12T20:42:22.350Z,14.97
2023-02-12T20:44:53.061Z,15.80
2023-02-12T20:47:28.351Z,15.97
2023-02-12T20:49:58.369Z,17.73
2023-02-12T20:52:28.000Z,15.87
2023-02-12T20:54:57.267Z,15.27
2023-02-12T20:57:26.491Z,15.67
2023-02-12T20:59:59.521Z,18.87
2023-02-12T21:02:29.101Z,14.43
2023-02-12T21:04:58.478Z,16.47
2023-02-12T21:07:27.581Z,20.30
2023-02-12T21:09:56.980Z,18.23
2023-02-12T21:12:26.467Z,15.97
2023-02-12T21:14:57.031Z,18.60
2023-02-12T21:17:26.237Z,18.77
2023-02-12T21:19:55.355Z,19.37
2023-02-12T21:22:24.820Z,16.47
2023-02-12T21:24:54.113Z,18.77
2023-02-12T21:27:23.459Z,24.97
2023-02-12T21:29:54.305Z,21.20
2023-02-12T21:32:24.980Z,19.27
2023-02-12T21:34:54.337Z,18.20
2023-02-12T21:37:23.680Z,22.47
2023-02-12T21:39:52.843Z,28.20
2023-02-12T21:42:21.986Z,20.70
2023-02-12T21:44:51.491Z,22.00
2023-02-12T21:47:20.877Z,21.60
2023-02-12T21:49:52.112Z,19.10
2023-02-12T21:52:21.393Z,18.97
2023-02-12T21:54:56.954Z,20.87
2023-02-12T21:57:26.358Z,21.17
2023-02-12T21:59:55.702Z,29.50
2023-02-12T22:02:25.523Z,26.27
2023-02-12T22:05:00.038Z,24.23
2023-02-12T22:07:29.334Z,20.40
2023-02-12T22:09:58.520Z,23.67
2023-02-12T22:12:32.454Z,21.07
2023-02-12T22:15:01.733Z,25.03
2023-02-12T22:17:32.416Z,20.90
2023-02-12T22:20:03.713Z,22.60
2023-02-12T22:22:32.864Z,19.87
2023-02-12T22:25:02.603Z,20.47
2023-02-12T22:27:33.221Z,20.47
2023-02-12T22:30:03.297Z,22.23
2023-02-12T22:32:32.713Z,22.37
2023-02-12T22:35:03.192Z,21.17
2023-02-12T22:37:32.259Z,19.97
2023-02-12T22:40:01.312Z,22.50
2023-02-12T22:42:30.509Z,16.83
2023-02-12T22:44:59.691Z,17.30
2023-02-12T22:47:31.896Z,30.53
2023-02-12T22:50:02.381Z,20.93
2023-02-12T22:52:33.561Z,20.03
2023-02-12T22:55:02.958Z,16.77
2023-02-12T22:57:32.239Z,21.90
2023-02-12T23:00:05.568Z,17.57
2023-02-12T23:02:34.933Z,16.70
2023-02-12T23:05:05.738Z,16.77
2023-02-12T23:07:35.094Z,17.33
2023-02-12T23:10:04.602Z,25.63
2023-02-12T23:12:33.759Z,16.90
2023-02-12T23:15:03.187Z,18.17
2023-02-12T23:17:32.900Z,20.53
2023-02-12T23:20:02.264Z,18.77
2023-02-12T23:22:33.015Z,18.67
2023-02-12T23:25:02.148Z,18.83
2023-02-12T23:27:31.485Z,21.67
2023-02-12T23:30:00.613Z,19.00
2023-02-12T23:32:29.773Z,23.60
2023-02-12T23:34:58.865Z,19.10
2023-02-12T23:37:28.114Z,22.83
2023-02-12T23:39:58.790Z,19.47
2023-02-12T23:42:28.073Z,20.70
2023-02-12T23:44:57.867Z,17.50
2023-02-12T23:47:27.208Z,23.47
2023-02-12T23:49:56.470Z,21.50
2023-02-12T23:52:26.095Z,17.50
2023-02-12T23:54:57.025Z,21.73
2023-02-12T23:57:27.102Z,25.10
2023-02-12T23:59:56.251Z,18.03
